Time;durP1;ratioP1;P1;durP2;ratioP2;P2;SDS_P1;SDS_P2;PMS_P1;PMS_P2;Temp;Humidity;BMP_temperature;BMP_pressure;BME280_temperature;BME280_humidity;BME280_pressure;Samples;Min_cycle;Max_cycle;Signal;HPM_P1;HPM_P2
2022/06/27 00:01:51;;;;;;;19.25;13.02;;;;;;;21.54;63.05;99882.22;5116334;27;20035;-70
2022/06/27 00:04:16;;;;;;;19.95;12.45;;;;;;;21.54;62.76;99881.38;5080883;27;20031;-71
2022/06/27 00:06:41;;;;;;;25.70;12.70;;;;;;;21.52;62.61;99888.84;5116259;27;20034;-74
2022/06/27 00:09:06;;;;;;;30.17;13.38;;;;;;;21.52;63.30;99889.69;5116038;27;20902;-72
2022/06/27 00:11:31;;;;;;;23.15;12.70;;;;;;;21.52;63.44;99888.84;5096683;27;20133;-72
2022/06/27 00:13:56;;;;;;;26.45;13.27;;;;;;;21.50;63.82;99890.88;5096966;27;20489;-72
2022/06/27 00:16:21;;;;;;;23.45;13.10;;;;;;;21.50;64.02;99890.88;5097789;27;20552;-72
2022/06/27 00:18:46;;;;;;;22.65;14.02;;;;;;;21.50;64.25;99897.13;5095967;27;20034;-72
2022/06/27 00:21:10;;;;;;;21.25;12.20;;;;;;;21.48;64.33;99890.19;5096207;27;20065;-71
2022/06/27 00:23:35;;;;;;;21.17;12.90;;;;;;;21.45;64.64;99901.38;5118021;27;20044;-71
2022/06/27 00:26:00;;;;;;;21.92;13.68;;;;;;;21.43;64.90;99900.72;5118761;27;20455;-70
2022/06/27 00:28:25;;;;;;;22.05;14.10;;;;;;;21.40;65.07;99901.91;5117388;27;20038;-72
2022/06/27 00:30:50;;;;;;;19.27;12.70;;;;;;;21.36;65.08;99897.84;5098096;27;20540;-72
2022/06/27 00:33:15;;;;;;;19.20;13.00;;;;;;;21.31;65.08;99897.53;5098402;27;20440;-71
2022/06/27 00:35:39;;;;;;;21.83;13.63;;;;;;;21.29;65.72;99896.84;5095864;27;20042;-72
2022/06/27 00:38:04;;;;;;;18.83;12.60;;;;;;;21.25;65.63;99901.75;5098064;27;20047;-72
2022/06/27 00:40:29;;;;;;;21.13;14.00;;;;;;;21.23;65.59;99905.66;5097838;27;20492;-71
2022/06/27 00:42:54;;;;;;;20.45;13.98;;;;;;;21.22;65.98;99904.00;5118006;27;20065;-70
2022/06/27 00:45:19;;;;;;;20.70;14.02;;;;;;;21.20;66.10;99909.59;5097804;27;20026;-71
2022/06/27 00:47:44;;;;;;;22.73;14.93;;;;;;;21.19;65.84;99902.47;5085456;27;20424;-71
2022/06/27 00:50:09;;;;;;;21.40;13.10;;;;;;;21.21;65.76;99905.00;5118409;27;20126;-71
2022/06/27 00:52:34;;;;;;;26.55;14.63;;;;;;;21.22;65.70;99912.94;5117991;27;20449;-72
2022/06/27 00:54:59;;;;;;;18.85;12.93;;;;;;;21.22;64.34;99907.53;5111342;27;20049;-71
2022/06/27 00:57:24;;;;;;;21.02;12.52;;;;;;;21.25;65.25;99912.63;5100915;27;20043;-73
2022/06/27 00:59:49;;;;;;;20.48;13.05;;;;;;;21.24;65.64;99905.50;5085884;27;20035;-73
2022/06/27 01:02:14;;;;;;;20.48;13.23;;;;;;;21.24;65.55;99910.06;5103897;27;20053;-70
2022/06/27 01:04:39;;;;;;;19.77;12.10;;;;;;;21.23;65.67;99908.38;5116255;27;20030;-71
2022/06/27 01:07:09;;;;;;;19.60;12.40;;;;;;;21.26;65.77;99908.03;5086953;27;20077;-73
2022/06/27 01:09:34;;;;;;;25.30;13.75;;;;;;;21.25;65.88;99907.19;5120194;27;20580;-72
2022/06/27 01:11:59;;;;;;;26.92;13.63;;;;;;;21.25;65.60;99899.06;5122025;27;20038;-72
2022/06/27 01:14:24;;;;;;;21.42;13.90;;;;;;;21.26;65.50;99906.16;5121481;27;20042;-71
2022/06/27 01:16:50;;;;;;;19.92;11.80;;;;;;;21.28;65.20;99900.59;5104147;27;20030;-72
2022/06/27 01:19:16;;;;;;;22.60;13.32;;;;;;;21.30;65.64;99901.25;5100252;27;20066;-74
2022/06/27 01:21:47;;;;;;;19.48;12.98;;;;;;;21.32;65.55;99897.38;5096821;27;20383;-71
2022/06/27 01:24:12;;;;;;;19.77;13.07;;;;;;;21.27;64.66;99902.44;5079544;27;20037;-72
2022/06/27 01:26:37;;;;;;;20.15;13.40;;;;;;;21.24;63.99;99910.06;5116565;27;20492;-73
2022/06/27 01:29:03;;;;;;;20.65;13.18;;;;;;;21.18;62.82;99906.19;5094475;27;20062;-72
2022/06/27 01:31:29;;;;;;;18.27;11.80;;;;;;;21.19;62.20;99902.47;5097972;27;20050;-69
2022/06/27 01:33:54;;;;;;;21.23;13.07;;;;;;;21.19;63.94;99907.88;5100300;27;20095;-75
2022/06/27 01:39:02;;;;;;;19.33;12.02;;;;;;;21.25;66.12;99904.47;5113950;27;20069;-72
2022/06/27 01:41:27;;;;;;;26.75;12.57;;;;;;;21.28;66.55;99901.44;5084461;27;20049;-76
2022/06/27 01:43:52;;;;;;;18.58;12.32;;;;;;;21.30;66.47;99912.97;5102579;27;20030;-74
2022/06/27 01:46:17;;;;;;;19.40;11.80;;;;;;;21.33;66.68;99900.94;5104845;27;20046;-74
2022/06/27 01:48:42;;;;;;;20.15;11.07;;;;;;;21.36;66.34;99900.56;5100568;27;20054;-70
2022/06/27 01:51:09;;;;;;;24.25;12.57;;;;;;;21.41;66.35;99902.75;5102822;27;20046;-71
2022/06/27 01:53:34;;;;;;;20.83;12.70;;;;;;;21.43;65.90;99907.00;5087548;27;20043;-70
2022/06/27 01:55:59;;;;;;;18.00;11.55;;;;;;;21.49;65.70;99908.16;5083108;27;20078;-69
2022/06/27 01:58:24;;;;;;;24.27;12.85;;;;;;;21.54;65.30;99906.63;5102121;27;20390;-72
2022/06/27 02:00:49;;;;;;;18.50;12.35;;;;;;;21.59;65.22;99898.81;5083167;27;20408;-71
2022/06/27 02:03:14;;;;;;;17.10;11.75;;;;;;;21.63;64.81;99904.75;5083239;27;20042;-72
2022/06/27 02:05:41;;;;;;;18.45;11.88;;;;;;;21.70;64.84;99905.72;5081698;27;20049;-71
2022/06/27 02:08:09;;;;;;;15.45;11.82;;;;;;;21.76;64.02;99907.75;5099989;27;20038;-71
2022/06/27 02:10:33;;;;;;;22.40;12.32;;;;;;;21.84;64.24;99909.59;5118453;27;20050;-71
2022/06/27 02:13:00;;;;;;;17.67;12.38;;;;;;;21.90;64.26;99906.16;5083294;27;20039;-72
2022/06/27 02:15:25;;;;;;;15.95;12.43;;;;;;;21.96;64.29;99903.59;5097619;27;20486;-73
2022/06/27 02:17:49;;;;;;;17.88;12.60;;;;;;;22.04;64.19;99905.47;5101283;27;20446;-73
2022/06/27 02:20:15;;;;;;;22.98;12.88;;;;;;;22.12;63.38;99902.72;5100663;27;20065;-75
2022/06/27 02:22:40;;;;;;;21.60;13.05;;;;;;;22.19;63.29;99903.69;5105298;27;20532;-72
2022/06/27 02:25:05;;;;;;;17.33;11.73;;;;;;;22.27;62.64;99900.06;5104017;27;20417;-71
2022/06/27 02:27:33;;;;;;;19.90;11.70;;;;;;;22.37;61.83;99897.97;5123347;27;20046;-70
2022/06/27 02:29:58;;;;;;;16.65;11.43;;;;;;;22.50;62.22;99894.69;5123469;27;20046;-72
2022/06/27 02:32:24;;;;;;;16.23;11.93;;;;;;;22.59;60.90;99897.16;5121564;27;20035;-73
2022/06/27 02:34:50;;;;;;;17.33;12.20;;;;;;;22.71;61.40;99892.13;5102897;27;20091;-70
2022/06/27 02:37:15;;;;;;;19.27;11.88;;;;;;;22.81;61.14;99901.78;5087545;27;20038;-74
2022/06/27 02:39:42;;;;;;;18.17;12.02;;;;;;;22.90;60.11;99899.84;5108754;27;20070;-71
2022/06/27 02:42:10;;;;;;;19.50;12.13;;;;;;;23.01;60.38;99904.00;5091858;27;20428;-72
2022/06/27 02:44:37;;;;;;;20.13;12.93;;;;;;;23.12;60.05;99909.00;5131294;27;20063;-68
2022/06/27 02:47:02;;;;;;;14.70;11.43;;;;;;;23.22;59.43;99890.56;5106152;27;20046;-69
2022/06/27 02:49:27;;;;;;;19.83;11.85;;;;;;;23.33;59.33;99898.25;5107069;27;20051;-69
2022/06/27 02:52:00;;;;;;;16.75;12.10;;;;;;;23.45;58.77;99907.66;5105858;27;20086;-68
2022/06/27 02:55:01;;;;;;;15.93;11.32;;;;;;;23.61;58.26;99895.78;5105091;27;20082;-69
2022/06/27 02:57:36;;;;;;;14.57;11.18;;;;;;;23.68;58.18;99901.34;5103620;27;20047;-68
2022/06/27 03:00:07;;;;;;;18.95;12.07;;;;;;;23.75;59.04;99900.38;5109066;27;20221;-69
2022/06/27 03:02:40;;;;;;;17.45;11.75;;;;;;;23.88;58.91;99897.84;5099076;27;20037;-71
2022/06/27 03:05:24;;;;;;;19.25;13.18;;;;;;;23.98;58.91;99896.69;5106535;27;20086;-70
2022/06/27 03:07:50;;;;;;;22.13;13.02;;;;;;;24.06;57.74;99904.75;5124244;27;20042;-71
2022/06/27 03:10:15;;;;;;;15.23;12.05;;;;;;;24.10;57.08;99898.75;5089614;27;20049;-72
2022/06/27 03:12:43;;;;;;;15.70;12.15;;;;;;;24.14;56.40;99900.06;5105709;27;20582;-71
2022/06/27 03:15:09;;;;;;;15.40;11.48;;;;;;;24.22;56.54;99912.75;5103776;27;20047;-70
2022/06/27 03:17:34;;;;;;;16.98;11.13;;;;;;;24.27;55.93;99904.03;5101926;27;20042;-70
2022/06/27 03:20:18;;;;;;;17.38;11.35;;;;;;;24.40;57.45;99904.16;5119284;27;20051;-69
2022/06/27 03:22:54;;;;;;;17.10;11.30;;;;;;;24.50;57.80;99907.41;5100279;27;20442;-68
2022/06/27 03:25:19;;;;;;;17.98;11.25;;;;;;;24.59;57.09;99901.69;5099330;27;20182;-67
2022/06/27 03:27:43;;;;;;;15.20;11.05;;;;;;;24.73;56.72;99901.78;5098695;27;20508;-69
2022/06/27 03:30:09;;;;;;;15.15;11.00;;;;;;;24.85;55.90;99894.78;5099446;27;20049;-69
2022/06/27 03:32:36;;;;;;;11.38;9.90;;;;;;;24.98;54.84;99883.19;5099494;27;20484;-72
2022/06/27 03:35:05;;;;;;;14.18;10.55;;;;;;;25.10;54.29;99893.34;5066105;27;20121;-72
2022/06/27 03:37:31;;;;;;;12.73;10.50;;;;;;;25.22;54.01;99893.66;5099396;27;20047;-71
2022/06/27 03:39:56;;;;;;;12.82;11.02;;;;;;;25.36;54.04;99889.16;5078001;27;20039;-72
2022/06/27 03:42:21;;;;;;;12.10;10.15;;;;;;;25.48;53.13;99896.59;5079742;27;20490;-71
2022/06/27 03:44:45;;;;;;;10.95;9.75;;;;;;;25.58;52.88;99888.06;5096672;27;20073;-71
2022/06/27 03:47:10;;;;;;;12.23;10.18;;;;;;;25.69;52.74;99895.72;5094345;27;20054;-70
2022/06/27 03:50:00;;;;;;;17.77;10.50;;;;;;;25.84;52.61;99888.25;5100098;27;20046;-70
2022/06/27 03:52:32;;;;;;;;;;;;;;;26.16;51.67;99894.06;5084088;27;20128;-70
2022/06/27 03:54:56;;;;;;;12.60;9.32;;;;;;;26.17;51.97;99884.81;5097956;27;19935;-72
2022/06/27 03:57:21;;;;;;;12.90;10.07;;;;;;;26.26;51.24;99892.63;5096457;27;20046;-71
2022/06/27 03:59:46;;;;;;;12.68;10.40;;;;;;;26.38;50.56;99893.75;5096301;27;20030;-71
2022/06/27 04:02:11;;;;;;;15.20;10.80;;;;;;;26.46;50.93;99894.59;5094158;27;20050;-71
2022/06/27 04:04:52;;;;;;;14.52;11.32;;;;;;;26.36;51.13;99895.84;5099976;27;20046;-72
2022/06/27 04:07:16;;;;;;;13.43;10.15;;;;;;;26.29;53.13;99892.25;5082651;27;20035;-71
2022/06/27 04:09:41;;;;;;;13.27;10.48;;;;;;;26.21;51.29;99889.66;5097738;27;20050;-72
2022/06/27 04:12:07;;;;;;;12.52;10.23;;;;;;;25.90;51.56;99897.50;5101099;27;20046;-71
2022/06/27 04:14:51;;;;;;;11.95;10.30;;;;;;;25.61;52.97;99895.88;5099481;27;20066;-73
2022/06/27 04:17:36;;;;;;;14.20;9.60;;;;;;;25.41;54.90;99892.97;5100339;27;20523;-71
2022/06/27 04:20:30;;;;;;;12.88;10.80;;;;;;;25.37;54.28;99893.56;5057147;28;20055;-72
2022/06/27 04:23:00;;;;;;;13.52;9.65;;;;;;;25.38;53.90;99889.81;5040035;28;20524;-71
2022/06/27 04:25:43;;;;;;;11.23;10.02;;;;;;;25.28;54.29;99895.63;5057487;28;20059;-71
2022/06/27 04:28:09;;;;;;;14.30;10.45;;;;;;;25.14;54.39;99894.66;5041097;28;20052;-71
2022/06/27 04:30:34;;;;;;;11.85;9.90;;;;;;;25.05;55.41;99895.00;5040720;28;20065;-71
2022/06/27 04:32:59;;;;;;;16.90;10.77;;;;;;;25.13;55.65;99881.22;5020848;28;20047;-72
2022/06/27 04:35:25;;;;;;;13.13;9.82;;;;;;;25.21;55.15;99892.81;5056506;28;20044;-73
2022/06/27 04:37:50;;;;;;;15.15;10.50;;;;;;;25.27;54.29;99883.00;5039214;28;20075;-73
2022/06/27 04:40:37;;;;;;;13.48;10.10;;;;;;;25.39;54.52;99878.69;5015457;28;20048;-74
2022/06/27 04:43:03;;;;;;;12.25;10.52;;;;;;;25.53;55.22;99874.13;4999808;28;20061;-73
2022/06/27 04:45:29;;;;;;;13.93;9.90;;;;;;;25.68;56.03;99878.47;4999631;28;20087;-73
2022/06/27 04:48:07;;;;;;;14.55;10.20;;;;;;;25.95;54.24;99873.16;4999615;28;20103;-73
2022/06/27 04:50:32;;;;;;;13.77;10.27;;;;;;;26.36;53.84;99879.44;4998107;28;20049;-72
2022/06/27 04:53:00;;;;;;;13.85;9.85;;;;;;;26.95;51.75;99878.75;4999008;28;20110;-71
2022/06/27 04:55:25;;;;;;;12.90;10.68;;;;;;;27.58;51.37;99875.56;5003884;28;20515;-70
2022/06/27 04:57:50;;;;;;;11.68;10.48;;;;;;;27.96;48.86;99876.50;5031684;28;20056;-74
2022/06/27 05:00:16;;;;;;;13.90;10.32;;;;;;;28.16;49.45;99882.75;5016663;28;20047;-72
2022/06/27 05:02:59;;;;;;;20.58;10.40;;;;;;;28.62;48.61;99873.44;5050508;28;20044;-72
2022/06/27 05:05:25;;;;;;;14.25;10.52;;;;;;;29.07;48.47;99876.09;5053174;28;20138;-72
2022/06/27 05:07:51;;;;;;;15.85;10.13;;;;;;;29.25;45.48;99876.16;5054630;28;20051;-70
2022/06/27 05:10:17;;;;;;;12.02;10.80;;;;;;;29.06;47.00;99867.03;5057166;28;20388;-72
2022/06/27 05:12:42;;;;;;;16.10;11.18;;;;;;;28.64;48.08;99865.84;5040032;28;20426;-71
2022/06/27 05:15:08;;;;;;;13.55;10.57;;;;;;;28.52;47.28;99865.72;5041283;28;20119;-71
2022/06/27 05:17:33;;;;;;;13.20;11.25;;;;;;;28.72;48.08;99857.34;5073731;27;20079;-70
2022/06/27 05:19:59;;;;;;;18.27;10.48;;;;;;;28.93;47.47;99863.53;5100877;27;20054;-72
2022/06/27 05:22:25;;;;;;;11.65;10.50;;;;;;;29.19;46.19;99852.34;5106098;27;20039;-70
2022/06/27 05:24:49;;;;;;;15.27;11.73;;;;;;;29.46;45.43;99850.22;5119718;27;20539;-72
2022/06/27 05:27:18;;;;;;;13.48;11.30;;;;;;;29.60;42.95;99858.06;5100987;27;20519;-71
2022/06/27 05:29:44;;;;;;;12.82;11.27;;;;;;;29.32;44.42;99856.88;5101205;27;20038;-70
2022/06/27 05:32:10;;;;;;;14.82;11.05;;;;;;;29.12;47.18;99855.13;5083207;27;20039;-69
2022/06/27 05:34:36;;;;;;;13.10;10.90;;;;;;;29.09;45.04;99857.50;5100846;27;20069;-71
2022/06/27 05:37:04;;;;;;;16.02;11.90;;;;;;;29.12;45.02;99857.06;5119413;27;20057;-70
2022/06/27 05:39:29;;;;;;;11.73;10.50;;;;;;;29.04;45.43;99855.44;5119073;27;20035;-70
2022/06/27 05:41:54;;;;;;;14.45;10.23;;;;;;;28.87;46.13;99857.06;5100653;27;20050;-70
2022/06/27 05:44:21;;;;;;;12.63;10.75;;;;;;;28.84;47.15;99852.00;5119008;27;20096;-71
2022/06/27 05:46:46;;;;;;;14.55;11.35;;;;;;;28.91;47.90;99844.53;5083464;27;20043;-70
2022/06/27 05:49:29;;;;;;;12.88;11.57;;;;;;;29.06;46.50;99845.06;5119176;27;20046;-73
2022/06/27 05:51:57;;;;;;;13.73;10.98;;;;;;;29.25;46.07;99848.69;5100543;27;20050;-72
2022/06/27 05:54:24;;;;;;;11.63;10.30;;;;;;;29.55;46.48;99844.19;5083513;27;20138;-72
2022/06/27 05:56:49;;;;;;;13.77;11.20;;;;;;;30.03;45.27;99843.44;5100448;27;20552;-73
2022/06/27 05:59:14;;;;;;;12.52;10.52;;;;;;;30.58;44.74;99846.09;5118386;27;20501;-71
2022/06/27 06:01:40;;;;;;;14.57;11.85;;;;;;;31.01;42.33;99837.56;5099875;27;20046;-71
2022/06/27 06:04:06;;;;;;;12.23;11.05;;;;;;;31.34;41.58;99839.78;5100529;27;20030;-73
2022/06/27 06:06:33;;;;;;;13.32;11.95;;;;;;;31.70;41.16;99835.94;5100422;27;20576;-72
2022/06/27 06:08:59;;;;;;;15.65;11.75;;;;;;;32.43;39.85;99851.78;5100350;27;20991;-70
2022/06/27 06:11:25;;;;;;;13.10;11.77;;;;;;;32.64;40.16;99841.97;5100504;27;20054;-71
2022/06/27 06:13:52;;;;;;;17.77;12.77;;;;;;;32.94;40.63;99844.47;5118230;27;20509;-71
2022/06/27 06:16:19;;;;;;;18.92;11.68;;;;;;;33.75;38.39;99849.34;5100132;27;20053;-70
2022/06/27 06:18:44;;;;;;;12.82;11.27;;;;;;;34.69;35.03;99862.94;5117181;27;20086;-71
2022/06/27 06:21:09;;;;;;;13.60;11.48;;;;;;;35.56;34.02;99839.56;5101248;27;20512;-69
2022/06/27 06:23:36;;;;;;;15.05;11.45;;;;;;;36.32;31.87;99842.75;5102954;27;20042;-70
2022/06/27 06:26:02;;;;;;;12.45;11.25;;;;;;;36.31;32.13;99902.16;5122527;27;20054;-71
2022/06/27 06:28:30;;;;;;;12.02;10.75;;;;;;;36.48;31.88;99836.09;5086177;27;20142;-68
2022/06/27 06:30:55;;;;;;;14.05;11.35;;;;;;;37.08;31.11;99840.91;5103690;27;20038;-69
2022/06/27 06:33:21;;;;;;;14.15;12.68;;;;;;;37.49;29.98;99845.59;5101579;27;20425;-69
2022/06/27 06:35:46;;;;;;;13.93;12.32;;;;;;;37.88;29.42;99840.22;5101787;27;20400;-70
2022/06/27 06:38:11;;;;;;;13.30;11.90;;;;;;;37.97;29.28;99839.34;5119706;27;20490;-70
2022/06/27 06:40:36;;;;;;;12.50;10.65;;;;;;;38.13;28.56;99840.16;5084770;27;20393;-70
2022/06/27 06:43:01;;;;;;;13.07;11.88;;;;;;;38.46;28.33;99844.16;5100667;27;20416;-66
2022/06/27 06:45:39;;;;;;;19.50;12.98;;;;;;;38.98;27.89;99854.69;5117817;27;20540;-69
2022/06/27 06:48:09;;;;;;;20.63;11.88;;;;;;;39.53;26.64;99847.78;5099736;27;20520;-69
2022/06/27 06:50:35;;;;;;;13.00;11.25;;;;;;;40.17;26.73;99840.06;5098960;27;20187;-70
2022/06/27 06:53:01;;;;;;;13.68;12.13;;;;;;;40.97;26.53;99848.41;5117618;27;20046;-70
2022/06/27 06:55:26;;;;;;;15.90;12.00;;;;;;;41.23;26.13;99858.03;5117926;27;20035;-70
2022/06/27 06:57:51;;;;;;;14.88;13.48;;;;;;;41.46;25.56;99849.78;5098928;27;20052;-71
2022/06/27 07:00:18;;;;;;;16.25;13.27;;;;;;;41.97;25.71;99858.91;5099042;27;20619;-70
2022/06/27 07:02:43;;;;;;;13.25;12.00;;;;;;;42.70;24.67;99854.22;5080878;27;20263;-70
2022/06/27 07:05:11;;;;;;;14.65;13.15;;;;;;;43.16;23.67;99842.69;5117477;27;20122;-71
2022/06/27 07:07:36;;;;;;;17.55;13.50;;;;;;;43.61;23.17;99859.53;5117395;27;20624;-69
2022/06/27 07:10:02;;;;;;;14.13;12.65;;;;;;;43.89;22.37;99852.53;5117509;27;20519;-71
2022/06/27 07:12:29;;;;;;;14.75;13.35;;;;;;;44.39;22.17;99853.03;5117324;27;20039;-71
2022/06/27 07:14:57;;;;;;;14.57;13.20;;;;;;;45.19;21.02;99907.88;5098565;27;20474;-72
2022/06/27 07:17:25;;;;;;;16.38;13.45;;;;;;;46.07;19.48;99929.84;5098910;27;20134;-71
2022/06/27 07:19:53;;;;;;;15.05;13.77;;;;;;;46.91;18.77;99860.31;5098342;27;20848;-72
2022/06/27 07:22:19;;;;;;;17.05;14.18;;;;;;;47.46;18.54;99904.31;5117193;27;20043;-71
2022/06/27 07:24:45;;;;;;;17.67;16.08;;;;;;;47.83;18.28;99855.19;5116584;27;20034;-73
2022/06/27 07:27:11;;;;;;;17.17;15.30;;;;;;;48.10;17.12;99864.97;5098423;27;20408;-73
2022/06/27 07:29:35;;;;;;;17.05;15.35;;;;;;;47.72;16.99;99855.97;5098273;27;20413;-72
2022/06/27 07:32:01;;;;;;;19.10;17.40;;;;;;;46.70;18.09;99849.03;5098674;27;20416;-73
2022/06/27 07:34:26;;;;;;;17.05;15.50;;;;;;;45.93;18.98;99858.81;5117041;27;20397;-72
2022/06/27 07:36:51;;;;;;;15.93;14.68;;;;;;;45.71;19.87;99850.59;5081730;27;20398;-73
2022/06/27 07:39:16;;;;;;;16.77;15.40;;;;;;;45.88;18.87;99854.19;5117177;27;20043;-72
2022/06/27 07:41:44;;;;;;;15.88;14.60;;;;;;;46.03;19.35;99841.50;5117408;27;20058;-73
2022/06/27 07:44:10;;;;;;;17.85;16.35;;;;;;;46.42;18.60;99847.91;5099279;27;20662;-72
2022/06/27 07:46:35;;;;;;;19.25;17.42;;;;;;;47.16;17.58;99845.13;5098607;27;20042;-72
2022/06/27 07:49:00;;;;;;;18.92;17.52;;;;;;;47.60;17.32;99859.63;5098443;27;20478;-72
2022/06/27 07:51:25;;;;;;;18.15;16.58;;;;;;;48.00;17.17;99840.78;5098263;27;20070;-73
2022/06/27 07:53:51;;;;;;;20.58;18.90;;;;;;;48.38;17.01;99851.75;5116484;27;20077;-73
2022/06/27 07:56:18;;;;;;;19.33;17.95;;;;;;;48.76;16.60;99841.16;5116531;27;20046;-72
2022/06/27 07:58:43;;;;;;;20.65;18.73;;;;;;;47.84;17.19;99844.72;5096825;27;20126;-71
2022/06/27 08:01:16;;;;;;;19.15;17.40;;;;;;;46.01;18.44;99848.66;5116276;27;20481;-73
2022/06/27 08:03:50;;;;;;;;;;;;;;;45.47;19.56;99843.53;5117483;27;20122;-73
2022/06/27 08:06:19;;;;;;;16.48;14.60;;;;;;;42.96;21.83;99834.81;5099912;27;19914;-73
2022/06/27 08:08:52;;;;;;;17.42;15.80;;;;;;;42.77;22.56;99834.16;5117858;27;20041;-73
2022/06/27 08:11:20;;;;;;;18.20;16.35;;;;;;;43.92;21.33;99835.00;5100096;27;20473;-74
2022/06/27 08:13:47;;;;;;;16.20;15.00;;;;;;;45.68;19.47;99840.00;5118441;27;20066;-73
2022/06/27 08:16:14;;;;;;;18.75;17.15;;;;;;;46.22;18.76;99844.69;5107042;27;20497;-73
2022/06/27 08:18:39;;;;;;;19.45;17.33;;;;;;;46.81;18.24;99833.34;5104994;27;20493;-73
2022/06/27 08:21:05;;;;;;;17.30;15.88;;;;;;;46.91;17.47;99829.25;5100175;27;20064;-73
2022/06/27 08:23:31;;;;;;;21.23;19.38;;;;;;;45.78;19.14;99828.34;5125363;27;20039;-72
2022/06/27 08:25:56;;;;;;;18.15;16.55;;;;;;;45.51;19.34;99832.44;5112255;27;20038;-74
2022/06/27 08:28:22;;;;;;;16.00;14.50;;;;;;;44.56;20.17;99817.66;5106327;27;20054;-73
2022/06/27 08:30:47;;;;;;;19.48;16.40;;;;;;;43.77;20.08;99815.81;5136445;27;20035;-74
2022/06/27 08:33:14;;;;;;;16.65;15.35;;;;;;;44.20;19.82;99815.94;5107236;27;20038;-75
2022/06/27 08:35:40;;;;;;;18.33;16.42;;;;;;;45.30;19.48;99829.50;5120656;27;20129;-74
2022/06/27 08:38:05;;;;;;;17.40;15.65;;;;;;;45.94;18.75;99823.00;5110510;27;20848;-74
2022/06/27 08:40:32;;;;;;;17.23;15.90;;;;;;;44.82;19.15;99824.94;5133682;27;20042;-74
2022/06/27 08:42:58;;;;;;;15.98;14.68;;;;;;;44.65;19.94;99813.69;5109816;27;20077;-75
2022/06/27 08:45:25;;;;;;;19.05;16.33;;;;;;;45.17;20.01;99824.91;5105217;27;20117;-75
2022/06/27 08:47:51;;;;;;;16.65;15.13;;;;;;;45.59;19.38;99823.16;5108710;27;20039;-75
2022/06/27 08:50:17;;;;;;;17.30;15.63;;;;;;;44.76;19.81;99817.84;5126801;27;20046;-76
2022/06/27 08:52:45;;;;;;;17.63;15.82;;;;;;;43.17;21.38;99802.31;5130194;27;20034;-75
2022/06/27 08:55:10;;;;;;;22.83;15.70;;;;;;;41.27;23.50;99800.34;5115517;27;20042;-74
2022/06/27 08:57:43;;;;;;;15.73;13.57;;;;;;;40.15;24.69;99800.44;5112810;27;20129;-75
2022/06/27 09:00:11;;;;;;;16.23;14.85;;;;;;;40.68;26.50;99811.38;5091739;27;20057;-74
2022/06/27 09:02:42;;;;;;;20.15;13.90;;;;;;;42.89;22.54;99806.41;5109581;27;20607;-75
2022/06/27 09:05:15;;;;;;;16.52;15.23;;;;;;;45.64;19.78;99805.22;5126449;27;20037;-76
2022/06/27 09:07:52;;;;;;;18.85;17.35;;;;;;;48.47;17.53;99814.03;5126411;27;20049;-76
2022/06/27 09:10:44;;;;;;;18.77;17.38;;;;;;;50.54;14.83;99821.97;5107248;27;20035;-75
2022/06/27 09:13:11;;;;;;;;;;;;;;;52.65;14.07;99827.31;5126135;27;20414;-75
2022/06/27 09:16:02;;;;;;;26.25;24.42;;;;;;;53.97;12.50;99819.75;5125145;27;19919;-74
2022/06/27 09:18:34;;;;;;;29.83;27.95;;;;;;;54.82;12.15;99875.75;5105160;27;20042;-75
2022/06/27 09:21:13;;;;;;;31.38;29.50;;;;;;;54.42;11.73;99866.09;5122395;27;20082;-74
2022/06/27 09:23:58;;;;;;;35.95;33.65;;;;;;;55.03;11.28;99819.47;5122444;27;20054;-75
2022/06/27 09:26:43;;;;;;;39.40;37.25;;;;;;;55.45;11.29;99814.25;5122781;27;20077;-75
2022/06/27 09:29:10;;;;;;;45.03;42.65;;;;;;;56.38;11.03;99841.59;5104636;27;20038;-75
2022/06/27 09:31:39;;;;;;;51.90;49.03;;;;;;;57.24;9.98;99854.28;5103836;27;20496;-74
2022/06/27 09:34:15;;;;;;;52.20;49.53;;;;;;;57.87;9.88;99852.22;5103683;27;20125;-73
2022/06/27 09:36:42;;;;;;;60.00;56.83;;;;;;;58.04;9.15;99851.22;5122380;27;20047;-74
2022/06/27 09:39:16;;;;;;;64.65;61.20;;;;;;;58.33;9.11;99839.47;5121861;27;20046;-72
2022/06/27 09:41:41;;;;;;;69.53;66.13;;;;;;;57.91;9.42;99840.72;5122244;27;20198;-71
2022/06/27 09:44:10;;;;;;;57.22;54.20;;;;;;;55.56;10.51;99835.09;5122097;27;20125;-71
2022/06/27 09:46:38;;;;;;;50.35;47.67;;;;;;;54.34;11.08;99799.59;5121943;27;20077;-72
2022/06/27 09:49:06;;;;;;;46.13;43.60;;;;;;;53.72;11.79;99784.50;5086543;27;20034;-71
2022/06/27 09:51:34;;;;;;;40.88;38.38;;;;;;;52.99;12.19;99774.84;5121999;27;20049;-71
2022/06/27 09:54:00;;;;;;;39.65;37.35;;;;;;;53.47;11.91;99784.28;5120005;27;20047;-71
2022/06/27 09:56:27;;;;;;;42.00;39.53;;;;;;;53.85;12.29;99782.97;5100219;27;20045;-71
2022/06/27 09:58:52;;;;;;;48.65;45.95;;;;;;;54.63;11.64;99776.91;5099182;27;20050;-71
2022/06/27 10:01:18;;;;;;;50.67;48.08;;;;;;;54.86;11.53;99765.16;5118873;27;20045;-72
2022/06/27 10:03:43;;;;;;;52.50;49.50;;;;;;;54.67;11.40;99761.41;5099773;27;20085;-71
2022/06/27 10:06:09;;;;;;;47.17;44.53;;;;;;;54.21;10.91;99771.81;5118363;27;20077;-71
2022/06/27 10:08:36;;;;;;;44.67;42.10;;;;;;;54.20;11.29;99770.16;5120678;27;20038;-72
2022/06/27 10:11:01;;;;;;;45.28;42.28;;;;;;;54.13;11.45;99770.09;5102283;27;20463;-70
2022/06/27 10:13:30;;;;;;;47.08;44.53;;;;;;;54.47;11.70;99771.50;5120642;27;20038;-71
2022/06/27 10:15:58;;;;;;;51.53;48.65;;;;;;;55.18;10.87;99763.19;5120757;27;20511;-71
2022/06/27 10:18:22;;;;;;;56.42;53.33;;;;;;;56.03;10.24;99793.78;5120087;27;20121;-71
2022/06/27 10:20:51;;;;;;;60.13;56.75;;;;;;;56.87;9.30;99806.22;5131215;27;20077;-70
2022/06/27 10:23:18;;;;;;;76.13;72.63;;;;;;;57.72;9.07;99799.88;5127403;27;20057;-71
2022/06/27 10:25:46;;;;;;;78.03;74.13;;;;;;;58.28;8.58;99803.41;5109344;27;20041;-71
2022/06/27 10:28:12;;;;;;;77.47;73.63;;;;;;;58.10;8.56;99797.84;5127987;27;20134;-71
2022/06/27 10:30:43;;;;;;;83.00;79.20;;;;;;;58.40;8.65;99807.78;5126732;27;20397;-70
2022/06/27 10:33:17;;;;;;;86.78;82.78;;;;;;;58.97;8.23;99813.59;5137829;27;20046;-74
2022/06/27 10:36:02;;;;;;;87.30;83.40;;;;;;;57.67;8.57;99765.09;5135263;27;20046;-75
2022/06/27 10:38:31;;;;;;;62.05;59.03;;;;;;;53.28;10.87;99748.28;5133348;27;20047;-75
2022/06/27 10:40:57;;;;;;;40.53;38.25;;;;;;;49.92;13.93;99733.00;5125990;27;20035;-74
2022/06/27 10:43:40;;;;;;;32.88;30.52;;;;;;;47.62;15.67;99727.28;5084556;27;20106;-74
2022/06/27 10:46:11;;;;;;;24.23;22.50;;;;;;;44.51;18.55;99723.84;5120021;27;20401;-75
2022/06/27 10:48:53;;;;;;;19.40;17.90;;;;;;;42.80;20.17;99716.56;5082669;27;20133;-74
2022/06/27 10:51:18;;;;;;;17.65;15.85;;;;;;;41.40;22.23;99706.34;5099733;27;20062;-74
2022/06/27 10:53:42;;;;;;;14.98;13.77;;;;;;;40.75;22.33;99697.25;5117680;27;20089;-75
2022/06/27 10:56:26;;;;;;;13.70;12.40;;;;;;;39.75;23.28;99706.84;5099270;27;20097;-74
2022/06/27 10:58:51;;;;;;;13.98;12.52;;;;;;;38.08;24.34;99692.59;5117867;27;20038;-73
2022/06/27 11:01:16;;;;;;;14.00;11.70;;;;;;;37.42;25.67;99687.38;5117726;27;20036;-73
2022/06/27 11:03:41;;;;;;;16.52;12.02;;;;;;;37.08;26.23;99690.78;5117983;27;20126;-74
2022/06/27 11:06:06;;;;;;;13.38;12.25;;;;;;;36.91;26.86;99681.91;5117257;27;20490;-73
2022/06/27 11:08:33;;;;;;;12.88;11.18;;;;;;;36.80;27.50;99687.81;5117310;27;20458;-71
2022/06/27 11:10:58;;;;;;;13.57;12.10;;;;;;;36.14;29.69;99682.19;5099052;27;20039;-72
2022/06/27 11:13:44;;;;;;;12.05;10.95;;;;;;;35.41;28.21;99676.72;5117534;27;20524;-71
2022/06/27 11:16:30;;;;;;;14.73;13.02;;;;;;;34.74;29.19;99674.66;5098847;27;20514;-74
2022/06/27 11:19:02;;;;;;;12.52;11.32;;;;;;;34.50;30.08;99676.97;5098637;27;20386;-75
2022/06/27 11:21:35;;;;;;;14.60;11.60;;;;;;;34.39;30.34;99678.00;5085667;27;20047;-73
2022/06/27 11:24:09;;;;;;;;;;;;;;;34.50;29.21;99668.66;5117986;27;20049;-76
2022/06/27 11:26:44;;;;;;;11.95;10.63;;;;;;;33.90;30.25;99671.69;5121319;27;19915;-74